createdAt,value
2019-05-30T00:00:50.593Z,101527.02
2019-05-30T00:03:23.190Z,101525.84
2019-05-30T00:05:56.304Z,101528.64
2019-05-30T00:08:29.147Z,101528.55
2019-05-30T00:11:03.264Z,101526.70
2019-05-30T00:13:35.988Z,101529.09
2019-05-30T00:16:08.729Z,101538.26
2019-05-30T00:18:41.407Z,101537.64
2019-05-30T00:21:14.087Z,101541.34
2019-05-30T00:23:46.654Z,101545.09
2019-05-30T00:26:19.338Z,101539.72
2019-05-30T00:28:53.443Z,101538.78
2019-05-30T00:31:26.124Z,101541.47
2019-05-30T00:33:59.552Z,101549.70
2019-05-30T00:36:32.407Z,101553.27
2019-05-30T00:39:06.575Z,101550.26
2019-05-30T00:41:39.505Z,101552.64
2019-05-30T00:44:12.184Z,101551.96
2019-05-30T00:46:44.866Z,101553.42
2019-05-30T00:49:17.442Z,101555.81
2019-05-30T00:51:50.126Z,101551.84
2019-05-30T00:54:22.695Z,101551.98
2019-05-30T00:56:56.510Z,101548.66
2019-05-30T00:59:29.290Z,101549.89
2019-05-30T01:02:02.775Z,101546.50
2019-05-30T01:04:36.690Z,101537.06
2019-05-30T01:07:08.969Z,101543.86
2019-05-30T01:09:41.528Z,101546.80
2019-05-30T01:12:14.220Z,101544.03
2019-05-30T01:14:46.791Z,101542.63
2019-05-30T01:17:19.473Z,101544.59
2019-05-30T01:19:52.046Z,101539.94
2019-05-30T01:22:24.725Z,101532.06
2019-05-30T01:24:57.407Z,101538.63
2019-05-30T01:27:30.444Z,101543.32
2019-05-30T01:30:03.700Z,101544.27
2019-05-30T01:32:36.569Z,101544.19
2019-05-30T01:35:10.326Z,101537.73
2019-05-30T01:37:42.961Z,101536.26
2019-05-30T01:40:15.742Z,101531.95
2019-05-30T01:42:49.540Z,101539.36
2019-05-30T01:45:21.741Z,101537.66
2019-05-30T01:47:54.545Z,101539.94
2019-05-30T01:50:27.171Z,101545.14
2019-05-30T01:53:00.397Z,101554.81
2019-05-30T01:55:33.551Z,101550.91
2019-05-30T01:58:07.125Z,101555.47
2019-05-30T02:00:42.161Z,101553.17
2019-05-30T02:03:14.975Z,101547.64
2019-05-30T02:05:47.859Z,101541.28
2019-05-30T02:08:21.150Z,101539.98
2019-05-30T02:10:53.720Z,101541.14
2019-05-30T02:13:26.405Z,101538.34
2019-05-30T02:15:59.599Z,101540.23
2019-05-30T02:18:32.882Z,101539.43
2019-05-30T02:21:06.080Z,101542.03
2019-05-30T02:23:38.760Z,101541.02
2019-05-30T02:26:11.431Z,101544.85
2019-05-30T02:28:44.110Z,101541.53
2019-05-30T02:31:37.360Z,101549.47
2019-05-30T02:33:51.023Z,101545.67
2019-05-30T02:36:25.122Z,101551.45
2019-05-30T02:38:58.104Z,101549.33
2019-05-30T02:41:30.677Z,101549.44
2019-05-30T02:44:05.299Z,101556.01
2019-05-30T02:46:37.584Z,101565.94
2019-05-30T02:49:11.864Z,101559.29
2019-05-30T02:51:44.300Z,101564.12
2019-05-30T02:54:16.954Z,101562.10
2019-05-30T02:56:49.186Z,101565.13
2019-05-30T02:59:21.890Z,101565.60
2019-05-30T03:02:01.855Z,101569.50
2019-05-30T03:04:29.409Z,101571.78
2019-05-30T03:07:03.858Z,101574.27
2019-05-30T03:09:36.305Z,101574.60
2019-05-30T03:12:11.016Z,101573.81
2019-05-30T03:14:43.211Z,101577.17
2019-05-30T03:17:17.160Z,101582.34
2019-05-30T03:19:49.529Z,101585.59
2019-05-30T03:22:22.146Z,101582.95
2019-05-30T03:24:54.879Z,101583.88
2019-05-30T03:27:27.512Z,101580.59
2019-05-30T03:30:00.093Z,101586.22
2019-05-30T03:33:05.315Z,101577.97
2019-05-30T03:35:18.614Z,101583.33
2019-05-30T03:37:43.869Z,101581.82
2019-05-30T03:40:18.504Z,101586.48
2019-05-30T03:42:51.573Z,101578.55
2019-05-30T03:45:28.194Z,101576.92
2019-05-30T03:48:07.406Z,101580.53
2019-05-30T03:50:44.966Z,101576.72
2019-05-30T03:53:17.765Z,101582.56
2019-05-30T03:55:54.152Z,101578.91
2019-05-30T03:58:50.861Z,101579.61
2019-05-30T04:01:36.757Z,101579.82
2019-05-30T04:04:19.775Z,101582.08
2019-05-30T04:06:57.139Z,101583.58
2019-05-30T04:09:32.086Z,101577.38
2019-05-30T04:12:10.600Z,101579.17
2019-05-30T04:14:46.972Z,101583.75
2019-05-30T04:17:20.012Z,101582.55
2019-05-30T04:19:53.048Z,101578.81
2019-05-30T04:22:25.725Z,101582.23
2019-05-30T04:24:57.945Z,101578.94
2019-05-30T04:27:30.571Z,101580.36
2019-05-30T04:30:03.159Z,101575.64
2019-05-30T04:32:35.833Z,101578.17
2019-05-30T04:35:10.144Z,101580.07
2019-05-30T04:37:42.822Z,101585.39
2019-05-30T04:40:17.433Z,101586.00
2019-05-30T04:42:50.127Z,101589.13
2019-05-30T04:45:27.557Z,101592.58
2019-05-30T04:47:57.950Z,101591.98
2019-05-30T04:50:30.619Z,101600.52
2019-05-30T04:53:03.309Z,101596.83
2019-05-30T04:55:35.993Z,101596.30
2019-05-30T04:58:08.710Z,101596.88
2019-05-30T05:00:41.346Z,101601.23
2019-05-30T05:03:15.494Z,101596.02
2019-05-30T05:05:48.344Z,101607.02
2019-05-30T05:08:21.969Z,101602.94
2019-05-30T05:10:54.513Z,101597.55
2019-05-30T05:13:27.498Z,101608.84
2019-05-30T05:16:00.075Z,101605.25
2019-05-30T05:18:52.872Z,101611.28
2019-05-30T05:21:25.518Z,101612.52
2019-05-30T05:23:58.202Z,101611.22
2019-05-30T05:26:30.885Z,101612.48
2019-05-30T05:29:03.479Z,101615.33
2019-05-30T05:31:37.157Z,101615.72
2019-05-30T05:34:09.742Z,101619.03
2019-05-30T05:36:42.423Z,101625.77
2019-05-30T05:39:16.148Z,101621.73
2019-05-30T05:41:48.898Z,101621.72
2019-05-30T05:44:22.365Z,101621.39
2019-05-30T05:46:55.287Z,101620.00
2019-05-30T05:49:28.872Z,101624.33
2019-05-30T05:52:01.870Z,101623.22
2019-05-30T05:54:34.553Z,101622.00
2019-05-30T05:57:07.233Z,101625.02
2019-05-30T05:59:39.802Z,101618.92
2019-05-30T06:02:12.669Z,101619.61
2019-05-30T06:04:45.465Z,101612.39
2019-05-30T06:07:18.248Z,101614.49
2019-05-30T06:09:50.938Z,101618.16
2019-05-30T06:12:23.864Z,101621.04
2019-05-30T06:14:56.336Z,101620.61
2019-05-30T06:17:29.311Z,101622.14
2019-05-30T06:20:02.266Z,101618.39
2019-05-30T06:22:35.450Z,101618.34
2019-05-30T06:25:09.096Z,101617.88
2019-05-30T06:27:42.049Z,101620.20
2019-05-30T06:30:16.362Z,101617.67
2019-05-30T06:32:49.341Z,101623.78
2019-05-30T06:35:23.019Z,101625.66
2019-05-30T06:37:55.937Z,101628.12
2019-05-30T06:40:30.878Z,101629.09
2019-05-30T06:43:03.037Z,101625.80
2019-05-30T06:45:35.712Z,101629.34
2019-05-30T06:48:08.381Z,101626.16
2019-05-30T06:50:40.972Z,101629.42
2019-05-30T06:53:14.665Z,101634.14
2019-05-30T06:55:47.352Z,101636.24
2019-05-30T06:58:35.318Z,101634.25
2019-05-30T07:00:54.239Z,101635.94
2019-05-30T07:03:28.341Z,101631.98
2019-05-30T07:06:01.506Z,101640.15
2019-05-30T07:08:34.845Z,101637.02
2019-05-30T07:11:07.523Z,101635.38
2019-05-30T07:13:40.204Z,101626.13
2019-05-30T07:16:12.882Z,101636.22
2019-05-30T07:18:45.559Z,101630.66
2019-05-30T07:21:18.243Z,101625.30
2019-05-30T07:23:50.924Z,101625.56
2019-05-30T07:26:23.908Z,101625.18
2019-05-30T07:28:56.709Z,101624.41
2019-05-30T07:31:30.206Z,101620.94
2019-05-30T07:34:03.161Z,101623.63
2019-05-30T07:36:35.736Z,101619.05
2019-05-30T07:39:11.286Z,101621.98
2019-05-30T07:41:43.972Z,101627.13
2019-05-30T07:44:16.651Z,101628.54
2019-05-30T07:46:48.866Z,101626.57
2019-05-30T07:49:21.594Z,101624.29
2019-05-30T07:51:53.832Z,101628.91
2019-05-30T07:54:26.860Z,101630.34
2019-05-30T07:56:59.526Z,101635.55
2019-05-30T07:59:34.292Z,101623.43
2019-05-30T08:02:07.566Z,101626.84
2019-05-30T08:04:41.130Z,101632.94
2019-05-30T08:07:13.734Z,101628.49
2019-05-30T08:09:45.986Z,101632.28
2019-05-30T08:12:18.418Z,101631.13
2019-05-30T08:14:51.054Z,101629.56
2019-05-30T08:17:23.621Z,101625.71
2019-05-30T08:19:55.868Z,101623.78
2019-05-30T08:22:29.848Z,101622.55
2019-05-30T08:25:02.898Z,101619.59
2019-05-30T08:27:36.445Z,101622.79
2019-05-30T08:30:13.682Z,101624.95
2019-05-30T08:32:47.888Z,101620.56
2019-05-30T08:35:20.567Z,101619.64
2019-05-30T08:37:53.155Z,101625.51
2019-05-30T08:40:25.832Z,101617.97
2019-05-30T08:42:59.221Z,101619.73
2019-05-30T08:45:31.899Z,101621.89
2019-05-30T08:48:04.883Z,101617.09
2019-05-30T08:50:41.290Z,101615.25
2019-05-30T08:53:11.886Z,101612.08
2019-05-30T08:55:45.185Z,101613.48
2019-05-30T08:58:17.749Z,101608.77
2019-05-30T09:00:50.836Z,101612.75
2019-05-30T09:03:24.761Z,101607.64
2019-05-30T09:06:03.818Z,101615.00
2019-05-30T09:08:31.846Z,101613.59
2019-05-30T09:11:04.677Z,101606.45
2019-05-30T09:13:38.859Z,101602.86
2019-05-30T09:16:11.936Z,101603.72
2019-05-30T09:18:45.269Z,101599.39
2019-05-30T09:21:18.072Z,101602.92
2019-05-30T09:23:50.992Z,101592.55
2019-05-30T09:26:23.684Z,101591.20
2019-05-30T09:28:56.776Z,101593.41
2019-05-30T09:31:29.511Z,101603.52
2019-05-30T09:34:02.132Z,101592.46
2019-05-30T09:36:34.816Z,101593.63
2019-05-30T09:39:09.706Z,101600.90
2019-05-30T09:41:43.736Z,101594.29
2019-05-30T09:44:16.529Z,101581.88
2019-05-30T09:46:50.416Z,101587.20
2019-05-30T09:49:23.025Z,101578.75
2019-05-30T09:51:55.698Z,101573.41
2019-05-30T09:54:27.914Z,101573.83
2019-05-30T09:57:00.645Z,101580.53
2019-05-30T09:59:33.213Z,101578.27
2019-05-30T10:02:06.009Z,101573.86
2019-05-30T10:04:38.788Z,101577.31
2019-05-30T10:07:11.468Z,101573.67
2019-05-30T10:09:45.622Z,101570.09
2019-05-30T10:12:18.770Z,101572.84
2019-05-30T10:14:52.836Z,101577.72
2019-05-30T10:17:25.785Z,101573.13
2019-05-30T10:19:58.433Z,101568.84
2019-05-30T10:22:31.023Z,101567.73
2019-05-30T10:25:03.702Z,101561.92
2019-05-30T10:27:36.439Z,101563.09
2019-05-30T10:30:12.109Z,101559.30
2019-05-30T10:32:45.413Z,101564.65
2019-05-30T10:35:19.440Z,101563.66
2019-05-30T10:37:52.842Z,101570.36
2019-05-30T10:40:25.708Z,101567.59
2019-05-30T10:42:59.206Z,101562.56
2019-05-30T10:45:32.029Z,101550.35
2019-05-30T10:48:04.687Z,101543.94
2019-05-30T10:50:37.653Z,101532.01
2019-05-30T10:53:10.335Z,101533.70
2019-05-30T10:55:42.954Z,101525.63
2019-05-30T10:58:15.585Z,101535.98
2019-05-30T11:00:53.421Z,101536.02
2019-05-30T11:03:28.944Z,101536.67
2019-05-30T11:06:17.983Z,101530.91
2019-05-30T11:08:52.854Z,101532.28
2019-05-30T11:11:25.924Z,101529.48
2019-05-30T11:13:58.798Z,101526.97
2019-05-30T11:16:32.497Z,101528.98
2019-05-30T11:21:39.086Z,101519.28
2019-05-30T11:24:13.127Z,101520.70
2019-05-30T11:26:45.787Z,101521.72
2019-05-30T11:29:18.481Z,101518.99
2019-05-30T11:31:53.389Z,101511.72
2019-05-30T11:34:26.179Z,101512.12
2019-05-30T11:36:59.331Z,101515.01
2019-05-30T11:39:33.077Z,101509.11
2019-05-30T11:42:05.863Z,101510.17
2019-05-30T11:44:38.535Z,101509.31
2019-05-30T11:47:11.201Z,101498.94
2019-05-30T11:49:46.845Z,101503.81
2019-05-30T11:52:19.529Z,101499.91
2019-05-30T11:54:52.093Z,101500.27
2019-05-30T11:57:24.903Z,101481.98
2019-05-30T11:59:58.336Z,101492.39
2019-05-30T12:02:31.486Z,101496.06
2019-05-30T12:05:04.371Z,101485.94
2019-05-30T12:07:37.179Z,101486.41
2019-05-30T12:10:10.842Z,101489.28
2019-05-30T12:12:43.535Z,101487.55
2019-05-30T12:15:16.106Z,101481.53
2019-05-30T12:17:48.996Z,101485.08
2019-05-30T12:20:21.230Z,101471.37
2019-05-30T12:22:53.807Z,101465.58
2019-05-30T12:25:26.215Z,101464.72
2019-05-30T12:28:00.082Z,101462.32
2019-05-30T12:30:32.903Z,101452.58
2019-05-30T12:33:05.620Z,101449.92
2019-05-30T12:35:38.254Z,101444.28
2019-05-30T12:38:10.946Z,101446.02
2019-05-30T12:40:43.621Z,101445.32
2019-05-30T12:43:16.300Z,101446.67
2019-05-30T12:45:49.698Z,101446.77
2019-05-30T12:48:22.366Z,101448.95
2019-05-30T12:50:55.251Z,101442.53
2019-05-30T12:53:28.144Z,101437.30
2019-05-30T12:56:00.821Z,101446.74
2019-05-30T12:58:33.072Z,101447.25
2019-05-30T13:01:06.847Z,101443.93
2019-05-30T13:03:39.975Z,101433.13
2019-05-30T13:06:12.207Z,101426.00
2019-05-30T13:08:45.142Z,101436.87
2019-05-30T13:11:17.833Z,101429.46
2019-05-30T13:13:50.486Z,101416.30
2019-05-30T13:16:23.064Z,101415.75
2019-05-30T13:18:55.950Z,101418.84
2019-05-30T13:21:28.845Z,101422.67
2019-05-30T13:24:02.116Z,101420.41
2019-05-30T13:26:34.918Z,101407.45
2019-05-30T13:29:07.837Z,101407.45
2019-05-30T13:31:40.473Z,101414.78
2019-05-30T13:34:13.160Z,101412.13
2019-05-30T13:36:45.850Z,101407.01
2019-05-30T13:39:18.620Z,101410.92
2019-05-30T13:41:51.404Z,101409.61
2019-05-30T13:44:24.172Z,101407.14
2019-05-30T13:46:56.908Z,101405.80
2019-05-30T13:49:30.874Z,101389.67
2019-05-30T13:52:05.023Z,101383.56
2019-05-30T13:54:37.978Z,101397.84
2019-05-30T13:57:10.653Z,101397.47
2019-05-30T13:59:43.331Z,101395.85
2019-05-30T14:02:15.908Z,101391.49
2019-05-30T14:04:48.583Z,101383.42
2019-05-30T14:07:21.175Z,101381.69
2019-05-30T14:09:53.843Z,101381.69
2019-05-30T14:12:27.742Z,101379.77
2019-05-30T14:15:01.139Z,101379.11
2019-05-30T14:17:35.969Z,101384.15
2019-05-30T14:20:11.259Z,101391.53
2019-05-30T14:22:44.407Z,101382.02
2019-05-30T14:25:17.711Z,101382.02
2019-05-30T14:27:51.721Z,101388.61
2019-05-30T14:30:25.617Z,101385.33
2019-05-30T14:32:58.295Z,101372.84
2019-05-30T14:35:31.274Z,101374.56
2019-05-30T14:38:04.690Z,101369.42
2019-05-30T14:40:37.771Z,101368.23
2019-05-30T14:43:11.414Z,101368.23
2019-05-30T14:45:44.360Z,101371.16
2019-05-30T14:48:16.978Z,101375.45
2019-05-30T14:50:49.725Z,101383.30
2019-05-30T14:53:21.946Z,101372.81
2019-05-30T14:55:54.399Z,101379.73
2019-05-30T14:58:27.037Z,101372.04
2019-05-30T15:00:59.301Z,101378.84
2019-05-30T15:03:32.499Z,101378.64
2019-05-30T15:06:06.879Z,101369.13
2019-05-30T15:08:39.496Z,101360.42
2019-05-30T15:11:12.166Z,101357.65
2019-05-30T15:13:44.743Z,101357.65
2019-05-30T15:16:17.225Z,101370.45
2019-05-30T15:18:50.315Z,101366.81
2019-05-30T15:21:22.996Z,101361.56
2019-05-30T15:23:55.672Z,101362.75
2019-05-30T15:26:28.342Z,101360.20
2019-05-30T15:29:00.933Z,101364.80
2019-05-30T15:31:33.598Z,101357.62
2019-05-30T15:34:06.595Z,101365.19
2019-05-30T15:36:39.267Z,101360.02
2019-05-30T15:39:11.497Z,101357.36
2019-05-30T15:41:44.115Z,101365.57
2019-05-30T15:44:17.731Z,101353.80
2019-05-30T15:46:50.267Z,101354.03
2019-05-30T15:49:22.876Z,101352.61
2019-05-30T15:51:55.543Z,101349.03
2019-05-30T15:54:27.771Z,101345.50
2019-05-30T15:57:00.404Z,101345.36
2019-05-30T15:59:33.084Z,101351.28
2019-05-30T16:02:05.765Z,101341.22
2019-05-30T16:04:38.430Z,101338.73
2019-05-30T16:07:11.105Z,101338.91
2019-05-30T16:09:46.998Z,101336.82
2019-05-30T16:12:19.382Z,101335.56
2019-05-30T16:14:52.440Z,101341.14
2019-05-30T16:17:25.318Z,101339.32
2019-05-30T16:19:57.900Z,101340.25
2019-05-30T16:22:30.630Z,101333.20
2019-05-30T16:25:03.295Z,101344.84
2019-05-30T16:27:37.160Z,101336.89
2019-05-30T16:30:12.077Z,101335.03
2019-05-30T16:32:45.126Z,101337.30
2019-05-30T16:35:18.277Z,101333.75
2019-05-30T16:37:51.041Z,101339.34
2019-05-30T16:40:23.257Z,101324.84
2019-05-30T16:42:55.897Z,101331.77
2019-05-30T16:45:28.564Z,101325.24
2019-05-30T16:48:01.250Z,101324.82
2019-05-30T16:50:33.836Z,101327.84
2019-05-30T16:53:06.628Z,101318.05
2019-05-30T16:55:39.282Z,101321.70
2019-05-30T16:58:12.065Z,101320.53
2019-05-30T17:00:44.340Z,101316.80
2019-05-30T17:03:17.772Z,101308.04
2019-05-30T17:05:52.396Z,101308.04
2019-05-30T17:08:24.943Z,101305.72
2019-05-30T17:10:58.024Z,101314.34
2019-05-30T17:13:31.388Z,101314.34
2019-05-30T17:16:04.197Z,101311.28
2019-05-30T17:18:36.981Z,101312.95
2019-05-30T17:21:09.671Z,101312.95
2019-05-30T17:23:42.351Z,101308.42
2019-05-30T17:26:15.033Z,101300.71
2019-05-30T17:28:47.924Z,101296.75
2019-05-30T17:31:21.622Z,101309.71
2019-05-30T17:33:54.502Z,101308.37
2019-05-30T17:36:28.169Z,101311.70
2019-05-30T17:39:00.639Z,101313.55
2019-05-30T17:41:34.789Z,101309.89
2019-05-30T17:44:07.461Z,101312.84
2019-05-30T17:46:40.247Z,101321.97
2019-05-30T17:49:12.921Z,101324.17
2019-05-30T17:51:45.509Z,101319.36
2019-05-30T17:54:17.772Z,101318.00
2019-05-30T17:56:50.444Z,101320.55
2019-05-30T17:59:22.710Z,101316.48
2019-05-30T18:01:55.301Z,101324.15
2019-05-30T18:04:28.609Z,101328.75
2019-05-30T18:07:01.469Z,101326.20
2019-05-30T18:09:34.159Z,101328.98
2019-05-30T18:12:07.033Z,101326.83
2019-05-30T18:14:39.709Z,101330.00
2019-05-30T18:17:12.289Z,101328.77
2019-05-30T18:19:44.983Z,101331.89
2019-05-30T18:22:17.192Z,101325.69
2019-05-30T18:24:49.821Z,101327.91
2019-05-30T18:27:23.811Z,101337.22
2019-05-30T18:29:56.161Z,101337.20
2019-05-30T18:32:28.783Z,101331.87
2019-05-30T18:35:01.564Z,101348.20
2019-05-30T18:37:34.556Z,101345.50
2019-05-30T18:40:09.382Z,101348.16
2019-05-30T18:42:42.571Z,101345.89
2019-05-30T18:45:18.732Z,101341.42
2019-05-30T18:47:51.617Z,101344.49
2019-05-30T18:50:25.188Z,101343.05
2019-05-30T18:52:58.000Z,101349.56
2019-05-30T18:55:30.753Z,101350.72
2019-05-30T18:58:03.350Z,101337.37
2019-05-30T19:00:36.025Z,101338.16
2019-05-30T19:03:08.548Z,101344.15
2019-05-30T19:05:41.190Z,101351.86
2019-05-30T19:08:13.756Z,101357.05
2019-05-30T19:10:46.433Z,101354.27
2019-05-30T19:13:19.015Z,101356.68
2019-05-30T19:15:51.481Z,101349.05
2019-05-30T19:18:25.270Z,101344.53
2019-05-30T19:20:58.190Z,101345.27
2019-05-30T19:23:32.042Z,101349.47
2019-05-30T19:26:04.575Z,101351.92
2019-05-30T19:28:37.238Z,101355.65
2019-05-30T19:31:09.921Z,101353.53
2019-05-30T19:33:42.613Z,101358.94
2019-05-30T19:36:15.281Z,101355.17
2019-05-30T19:38:47.959Z,101358.11
2019-05-30T19:41:21.979Z,101363.33
2019-05-30T19:43:54.647Z,101362.31
2019-05-30T19:46:28.074Z,101367.83
2019-05-30T19:49:00.722Z,101365.53
2019-05-30T19:51:33.403Z,101364.63
2019-05-30T19:54:06.083Z,101356.59
2019-05-30T19:56:41.661Z,101362.20
2019-05-30T19:59:13.292Z,101356.76
2019-05-30T20:01:45.967Z,101352.44
2019-05-30T20:04:18.744Z,101351.55
2019-05-30T20:06:51.425Z,101355.06
2019-05-30T20:09:24.214Z,101351.42
2019-05-30T20:12:03.231Z,101360.23
2019-05-30T20:14:31.105Z,101362.87
2019-05-30T20:17:03.790Z,101359.25
2019-05-30T20:19:37.689Z,101362.36
2019-05-30T20:22:10.473Z,101364.81
2019-05-30T20:24:43.042Z,101360.66
2019-05-30T20:27:15.423Z,101361.05
2019-05-30T20:29:47.998Z,101358.30
2019-05-30T20:32:20.783Z,101356.53
2019-05-30T20:34:53.463Z,101359.24
2019-05-30T20:37:26.141Z,101363.50
2019-05-30T20:39:59.945Z,101358.21
2019-05-30T20:42:32.616Z,101359.05
2019-05-30T20:45:09.874Z,101360.91
2019-05-30T20:47:43.089Z,101363.97
2019-05-30T20:50:17.311Z,101360.93
2019-05-30T20:52:50.202Z,101366.25
2019-05-30T20:55:23.073Z,101366.61
2019-05-30T20:57:55.756Z,101365.22
2019-05-30T21:00:42.240Z,101359.36
2019-05-30T21:03:15.153Z,101362.33
2019-05-30T21:05:49.362Z,101359.47
2019-05-30T21:08:23.276Z,101359.26
2019-05-30T21:10:58.683Z,101357.02
2019-05-30T21:13:36.223Z,101360.81
2019-05-30T21:16:09.812Z,101357.14
2019-05-30T21:18:46.190Z,101355.16
2019-05-30T21:21:19.987Z,101352.16
2019-05-30T21:23:52.661Z,101360.62
2019-05-30T21:26:25.345Z,101349.83
2019-05-30T21:28:58.948Z,101347.12
2019-05-30T21:31:31.162Z,101342.78
2019-05-30T21:34:04.155Z,101347.28
2019-05-30T21:36:37.690Z,101344.67
2019-05-30T21:39:11.493Z,101347.38
2019-05-30T21:41:44.554Z,101349.09
2019-05-30T21:44:17.373Z,101348.70
2019-05-30T21:46:49.941Z,101346.64
2019-05-30T21:49:22.622Z,101342.03
2019-05-30T21:51:55.502Z,101342.52
2019-05-30T21:54:28.187Z,101347.06
2019-05-30T21:57:01.781Z,101350.73
2019-05-30T21:59:34.472Z,101338.81
2019-05-30T22:02:07.970Z,101340.94
2019-05-30T22:04:40.498Z,101335.30
2019-05-30T22:07:13.730Z,101344.12
2019-05-30T22:09:45.978Z,101338.45
2019-05-30T22:12:18.573Z,101338.45
2019-05-30T22:14:52.393Z,101343.64
2019-05-30T22:17:24.850Z,101340.61
2019-05-30T22:19:57.544Z,101347.09
2019-05-30T22:22:31.350Z,101349.78
2019-05-30T22:25:04.130Z,101351.47
2019-05-30T22:27:36.706Z,101347.58
2019-05-30T22:30:09.680Z,101343.50
2019-05-30T22:32:42.585Z,101342.25
2019-05-30T22:35:15.552Z,101338.36
2019-05-30T22:37:48.892Z,101340.61
2019-05-30T22:40:21.843Z,101336.55
2019-05-30T22:42:54.718Z,101334.28
2019-05-30T22:45:27.707Z,101332.14
2019-05-30T22:48:00.585Z,101337.37
2019-05-30T22:50:33.382Z,101335.85
2019-05-30T22:53:06.353Z,101331.81
2019-05-30T22:55:39.357Z,101333.47
2019-05-30T22:58:12.030Z,101338.99
2019-05-30T23:00:45.947Z,101337.59
2019-05-30T23:03:18.739Z,101334.62
2019-05-30T23:05:51.636Z,101336.09
2019-05-30T23:08:24.583Z,101343.77
2019-05-30T23:10:57.567Z,101337.65
2019-05-30T23:13:40.209Z,101341.13
2019-05-30T23:16:05.129Z,101339.70
2019-05-30T23:18:38.072Z,101335.30
2019-05-30T23:21:11.059Z,101334.78
2019-05-30T23:23:43.820Z,101341.70
2019-05-30T23:26:16.732Z,101336.34
2019-05-30T23:28:49.708Z,101333.15
2019-05-30T23:31:22.687Z,101334.52
2019-05-30T23:33:56.470Z,101332.81
2019-05-30T23:36:28.954Z,101328.36
2019-05-30T23:39:01.574Z,101330.44
2019-05-30T23:41:35.871Z,101332.05
2019-05-30T23:44:11.667Z,101327.68
2019-05-30T23:46:42.349Z,101327.23
2019-05-30T23:49:15.028Z,101330.67
2019-05-30T23:51:47.706Z,101324.33
2019-05-30T23:54:20.392Z,101322.48
2019-05-30T23:56:54.596Z,101328.11
2019-05-30T23:59:27.482Z,101328.48
